KPAM/PAM METAR and TAF weather

Enter ICAO airport designator
Station Type Date Time Source
KPAM METAR 2020/07/12 03:56 UTC NOAA

KPAM 120356Z AUTO 35004KT 10SM CLR 28/21 A2991 RMK AO2 SLP131 T02810211 $


Station Type Date Time Source
KPAM Decoded METAR 2020/07/12 03:56 UTC NOAA

Tyndall Air Force Base, FL, United States (KPAM) 30-04N 085-35W 13M
Jul 11, 2020 - 11:56 PM EDT / 2020.07.12 0356 UTC
Wind: from the N (350 degrees) at 5 MPH (4 KT):0
Visibility: 10 mile(s):0
Sky conditions: clear
Temperature: 82.6 F (28.1 C)
Dew Point: 70.0 F (21.1 C)
Relative Humidity: 65%
Pressure (altimeter): 29.91 in. Hg (1012 hPa)
ob: KPAM 120356Z AUTO 35004KT 10SM CLR 28/21 A2991 RMK AO2 SLP131 T02810211
cycle: 4

Station Type Date Time Source
KPAM TAF 2020/07/10 19:22 UTC NOAA

TAF KPAM 101900Z 1019/1201 27012KT 9999 VCSH FEW018 SCT050 BKN100 QNH2992INS
TEMPO 1019/1023 30020G30KT 8000 -TSRA SCT018CB BKN050
BECMG 1023/1024 29012KT 9999 NSW FEW030 SCT040 QNH2991INS TX30/1021Z TN27/1110Z LAST NO
AMDS AFT 1024 NEXT 1311

Example: see airport list